Time;durP1;ratioP1;P1;durP2;ratioP2;P2;SDS_P1;SDS_P2;PMS_P1;PMS_P2;Temp;Humidity;BMP_temperature;BMP_pressure;BME280_temperature;BME280_humidity;BME280_pressure;Samples;Min_cycle;Max_cycle;Signal;HPM_P1;HPM_P2
2023/07/21 00:03:26;;;;;;;3.50;2.30;;;;;;;19.89;54.15;96270.47;10519351;28;20090;-33
2023/07/21 00:08:29;;;;;;;3.77;2.17;;;;;;;19.76;54.32;96271.50;10527878;28;20031;-33
2023/07/21 00:13:29;;;;;;;3.45;2.30;;;;;;;19.85;54.36;96267.13;10544466;28;20375;-34
2023/07/21 00:18:30;;;;;;;3.63;2.30;;;;;;;19.94;54.21;96256.84;10536381;28;20031;-33
2023/07/21 00:23:31;;;;;;;3.40;2.22;;;;;;;19.94;53.96;96259.41;10536200;28;20035;-32
2023/07/21 00:28:32;;;;;;;3.95;2.45;;;;;;;19.92;54.06;96255.22;10538011;28;20036;-33
2023/07/21 00:33:32;;;;;;;5.23;3.23;;;;;;;20.01;53.90;96247.47;10530305;28;20062;-33
2023/07/21 00:38:32;;;;;;;3.03;2.33;;;;;;;20.20;53.12;96243.84;10532756;28;20061;-33
2023/07/21 00:43:33;;;;;;;4.30;2.13;;;;;;;20.07;53.31;96247.41;10530833;28;20030;-32
2023/07/21 00:48:34;;;;;;;2.50;1.85;;;;;;;19.92;53.58;96242.53;10512163;28;20508;-33
2023/07/21 00:53:35;;;;;;;6.07;2.20;;;;;;;19.95;53.52;96243.31;10542378;28;20020;-33
2023/07/21 00:58:37;;;;;;;3.92;1.98;;;;;;;19.95;53.31;96232.31;10530089;28;20414;-34
2023/07/21 01:03:39;;;;;;;2.08;1.70;;;;;;;19.94;53.15;96230.63;10533067;28;20024;-33
2023/07/21 01:08:40;;;;;;;3.25;1.92;;;;;;;19.97;52.90;96228.03;10511740;28;20489;-33
2023/07/21 01:13:42;;;;;;;5.28;2.08;;;;;;;19.86;53.00;96218.00;10534654;28;20059;-34
2023/07/21 01:18:44;;;;;;;2.35;1.75;;;;;;;19.68;53.75;96213.16;10545045;28;20067;-33
2023/07/21 01:23:56;;;;;;;4.80;2.17;;;;;;;19.75;53.79;96219.84;10549108;28;20021;-33
2023/07/21 01:28:57;;;;;;;3.35;2.13;;;;;;;19.79;53.52;96213.91;10527230;28;20508;-33
2023/07/21 01:33:57;;;;;;;3.40;1.90;;;;;;;19.73;53.30;96220.72;10521562;28;20408;-34
2023/07/21 01:38:58;;;;;;;5.35;2.13;;;;;;;19.67;53.51;96192.91;10519398;28;20074;-33
2023/07/21 01:43:59;;;;;;;2.80;2.05;;;;;;;19.73;53.42;96201.25;10514633;28;20055;-33
2023/07/21 01:48:59;;;;;;;3.33;1.95;;;;;;;19.72;53.32;96202.13;10542533;28;20379;-33
2023/07/21 01:54:07;;;;;;;2.93;1.80;;;;;;;19.71;53.33;96197.06;10530395;28;20032;-33
2023/07/21 01:59:10;;;;;;;3.25;1.98;;;;;;;19.64;53.11;96195.44;10513780;28;20150;-33
2023/07/21 02:04:13;;;;;;;2.53;1.77;;;;;;;19.71;52.86;96191.97;10534223;28;20079;-33
2023/07/21 02:09:14;;;;;;;3.05;1.90;;;;;;;19.67;53.08;96185.28;10537618;28;20034;-33
2023/07/21 02:14:14;;;;;;;3.15;1.85;;;;;;;19.63;53.34;96189.56;10532786;28;20034;-34
2023/07/21 02:19:17;;;;;;;3.67;1.85;;;;;;;19.66;52.72;96186.13;10512641;28;20390;-33
2023/07/21 02:24:20;;;;;;;4.65;1.45;;;;;;;19.62;52.97;96187.03;10521038;28;20589;-33
2023/07/21 02:29:20;;;;;;;2.47;1.70;;;;;;;19.62;52.63;96179.41;10514265;28;20092;-33
2023/07/21 02:34:20;;;;;;;2.27;1.70;;;;;;;19.61;52.81;96183.63;10519449;28;20372;-33
2023/07/21 02:39:22;;;;;;;3.25;1.83;;;;;;;19.51;53.51;96178.72;10530771;28;20073;-34
2023/07/21 02:44:22;;;;;;;2.50;1.57;;;;;;;19.52;52.98;96177.84;10511826;28;20092;-33
2023/07/21 02:49:23;;;;;;;3.70;1.98;;;;;;;19.50;52.86;96177.84;10534386;28;20035;-33
2023/07/21 02:54:23;;;;;;;3.95;2.00;;;;;;;19.55;53.12;96175.25;10511274;28;20036;-33
2023/07/21 02:59:26;;;;;;;3.92;1.80;;;;;;;19.48;53.53;96169.44;10513389;28;20090;-33
2023/07/21 03:04:28;;;;;;;2.92;1.77;;;;;;;19.47;53.32;96171.97;10513571;28;20028;-33
2023/07/21 03:09:34;;;;;;;2.55;1.55;;;;;;;19.37;53.38;96162.81;10518023;28;20489;-33
2023/07/21 03:14:34;;;;;;;4.05;2.05;;;;;;;19.32;53.27;96162.00;10516808;28;20350;-33
2023/07/21 03:19:35;;;;;;;2.65;1.70;;;;;;;19.21;53.70;96168.91;10517013;28;20036;-33
2023/07/21 03:24:41;;;;;;;3.15;1.63;;;;;;;19.33;53.25;96168.78;10517756;28;20024;-33
2023/07/21 03:29:43;;;;;;;1.75;1.55;;;;;;;19.24;53.24;96173.97;10521246;28;20028;-32
2023/07/21 03:34:48;;;;;;;3.45;1.75;;;;;;;19.19;53.19;96170.63;10508887;28;20490;-33
2023/07/21 03:39:49;;;;;;;3.55;1.52;;;;;;;19.17;52.84;96178.22;10513442;28;20028;-33
2023/07/21 03:44:50;;;;;;;3.60;2.27;;;;;;;19.20;53.06;96178.25;10534892;28;20405;-33
2023/07/21 03:49:50;;;;;;;3.08;1.80;;;;;;;19.16;53.23;96170.66;10528478;28;20294;-33
2023/07/21 03:54:51;;;;;;;3.13;1.80;;;;;;;19.23;52.83;96174.81;10523057;28;20405;-33
2023/07/21 03:59:52;;;;;;;4.78;1.67;;;;;;;19.24;53.36;96179.06;10508293;28;20286;-33
2023/07/21 04:04:53;;;;;;;5.22;1.63;;;;;;;19.27;52.92;96176.47;10513370;28;20028;-33
2023/07/21 04:09:56;;;;;;;5.38;2.40;;;;;;;19.20;53.12;96174.84;10518100;28;20047;-33
2023/07/21 04:14:57;;;;;;;3.33;2.13;;;;;;;19.27;53.13;96173.94;10524478;28;20409;-34
2023/07/21 04:19:57;;;;;;;2.23;2.03;;;;;;;19.25;53.58;96170.56;10501940;28;20032;-33
2023/07/21 04:24:58;;;;;;;4.22;2.00;;;;;;;19.22;53.66;96160.44;10511644;28;20023;-32
2023/07/21 04:30:00;;;;;;;3.17;1.95;;;;;;;19.20;53.71;96159.63;10511842;28;20032;-33
2023/07/21 04:35:03;;;;;;;5.30;1.95;;;;;;;19.16;53.91;96165.56;10510228;28;20024;-33
2023/07/21 04:40:06;;;;;;;4.00;1.70;;;;;;;19.24;53.39;96171.44;10514577;28;20107;-33
2023/07/21 04:45:11;;;;;;;2.42;1.77;;;;;;;19.30;53.65;96173.88;10520801;28;20487;-33
2023/07/21 04:50:14;;;;;;;2.80;2.00;;;;;;;19.31;53.72;96170.47;10504995;28;20081;-33
2023/07/21 04:55:15;;;;;;;3.57;1.80;;;;;;;19.16;54.04;96173.19;10514362;28;20093;-33
2023/07/21 05:00:17;;;;;;;2.63;1.88;;;;;;;19.12;53.87;96166.44;10521690;28;20297;-33
2023/07/21 05:05:20;;;;;;;3.40;1.90;;;;;;;19.17;53.77;96178.22;10471566;28;20042;-32
2023/07/21 05:10:27;;;;;;;3.78;2.03;;;;;;;19.19;53.50;96175.72;10459177;28;20072;-33
2023/07/21 05:15:28;;;;;;;4.07;1.80;;;;;;;19.06;54.07;96169.06;10469556;28;20027;-34
2023/07/21 05:20:43;;;;;;;2.67;1.70;;;;;;;19.31;53.56;96178.09;10463276;28;20506;-33
2023/07/21 05:25:46;;;;;;;5.97;1.85;;;;;;;19.32;53.55;96185.69;10472965;28;20040;-32
2023/07/21 05:30:48;;;;;;;6.13;1.98;;;;;;;20.03;53.23;96183.03;10456959;28;20064;-32
2023/07/21 05:35:51;;;;;;;2.58;1.75;;;;;;;20.25;52.18;96187.00;10450826;28;20059;-33
2023/07/21 05:40:57;;;;;;;4.97;2.30;;;;;;;20.40;52.10;96177.41;10460655;28;20043;-33
2023/07/21 05:46:02;;;;;;;5.20;1.70;;;;;;;20.50;52.06;96181.50;10454993;28;20063;-33
2023/07/21 05:51:02;;;;;;;4.60;1.88;;;;;;;20.60;51.79;96185.56;10467996;28;20040;-36
2023/07/21 05:56:06;;;;;;;5.43;1.45;;;;;;;20.64;51.45;96187.19;10484099;28;20052;-32
2023/07/21 06:01:24;;;;;;;5.03;1.67;;;;;;;20.81;52.07;96180.09;10461415;28;20514;-33
2023/07/21 06:06:24;;;;;;;4.32;1.60;;;;;;;20.86;51.96;96182.59;10476958;28;20039;-33
2023/07/21 06:11:48;;;;;;;9.55;2.42;;;;;;;20.90;52.01;96185.03;10484255;28;20056;-33
2023/07/21 06:17:02;;;;;;;3.65;1.70;;;;;;;20.92;51.78;96188.44;10464756;28;20561;-33
2023/07/21 06:22:05;;;;;;;2.33;1.75;;;;;;;20.91;51.87;96191.84;10466931;28;20058;-34
2023/07/21 06:27:07;;;;;;;14.75;2.08;;;;;;;20.88;51.63;96191.06;10459601;28;20031;-33
2023/07/21 06:32:08;;;;;;;4.50;1.75;;;;;;;21.06;50.75;96201.72;10474843;28;20498;-34
2023/07/21 06:37:29;;;;;;;3.50;1.70;;;;;;;21.06;50.87;96188.19;10476940;28;20028;-33
2023/07/21 06:43:01;;;;;;;4.45;1.85;;;;;;;21.10;50.50;96193.19;10463903;28;20040;-33
2023/07/21 06:48:31;;;;;;;4.65;1.90;;;;;;;21.12;50.49;96196.53;10381867;28;20044;-33
2023/07/21 06:53:45;;;;;;;4.20;1.73;;;;;;;21.06;50.31;96186.44;10459030;28;20080;-33
2023/07/21 06:58:45;;;;;;;2.75;1.88;;;;;;;21.10;50.35;96188.09;10467927;28;20379;-33
2023/07/21 07:03:46;;;;;;;4.40;1.90;;;;;;;21.11;50.93;96186.38;10455903;28;20024;-33
2023/07/21 07:08:46;;;;;;;3.43;1.93;;;;;;;21.13;50.83;96189.75;10451359;28;20282;-34
2023/07/21 07:13:49;;;;;;;3.70;1.80;;;;;;;21.16;50.49;96197.31;10473281;28;20114;-33
2023/07/21 07:18:49;;;;;;;4.65;2.03;;;;;;;21.11;50.91;96194.00;10458883;28;20078;-36
2023/07/21 07:23:49;;;;;;;7.87;2.43;;;;;;;21.19;50.98;96205.72;10476281;28;20024;-33
2023/07/21 07:28:50;;;;;;;6.17;2.17;;;;;;;21.06;51.02;96191.53;10480407;28;20032;-35
2023/07/21 07:33:50;;;;;;;4.43;1.97;;;;;;;21.14;50.70;96184.59;10473871;28;20020;-32
2023/07/21 07:38:51;;;;;;;3.30;2.00;;;;;;;21.14;50.20;96184.59;10476768;28;20867;-34
2023/07/21 07:43:51;;;;;;;3.47;1.70;;;;;;;21.12;50.42;96183.78;10476470;28;20032;-34
2023/07/21 07:48:51;;;;;;;3.50;2.20;;;;;;;21.06;50.51;96183.09;10474112;28;20051;-33
2023/07/21 07:53:54;;;;;;;3.03;2.13;;;;;;;21.03;50.51;96178.88;10471294;28;20904;-33
2023/07/21 07:58:55;;;;;;;3.10;2.03;;;;;;;21.25;49.61;96181.84;10472891;28;20515;-33
2023/07/21 08:03:55;;;;;;;5.93;1.67;;;;;;;21.21;48.78;96181.06;10470121;28;20900;-33
2023/07/21 08:08:56;;;;;;;4.00;1.90;;;;;;;21.21;48.95;96181.06;10469936;28;20327;-33
2023/07/21 08:13:56;;;;;;;3.47;1.33;;;;;;;21.28;49.10;96172.47;10470877;28;20047;-33
2023/07/21 08:18:57;;;;;;;2.50;2.00;;;;;;;21.11;50.43;96168.53;10469899;28;20040;-32
2023/07/21 08:23:58;;;;;;;3.85;1.90;;;;;;;21.18;50.35;96176.06;10477423;28;20414;-33
2023/07/21 08:28:58;;;;;;;6.90;2.03;;;;;;;21.14;50.70;96169.31;10470392;28;21195;-33
2023/07/21 08:33:58;;;;;;;4.70;1.80;;;;;;;21.17;50.32;96160.78;10466881;28;20032;-33
2023/07/21 08:38:59;;;;;;;16.60;4.37;;;;;;;21.26;49.39;96153.84;10507751;28;20024;-32
2023/07/21 08:44:01;;;;;;;14.20;3.67;;;;;;;21.20;49.98;96143.75;10518978;28;20478;-34
2023/07/21 08:49:04;;;;;;;11.02;2.78;;;;;;;21.10;50.92;96155.00;10531863;28;20489;-33
2023/07/21 08:54:05;;;;;;;8.50;2.78;;;;;;;21.07;51.42;96155.03;10524345;28;20032;-34
2023/07/21 08:59:05;;;;;;;4.10;2.20;;;;;;;21.05;51.44;96163.59;10534575;28;20038;-33
2023/07/21 09:04:23;;;;;;;4.63;2.10;;;;;;;21.02;51.74;96158.53;10528018;28;20082;-33
2023/07/21 09:09:25;;;;;;;4.78;2.22;;;;;;;21.01;51.63;96167.91;10518448;28;20040;-33
2023/07/21 09:14:41;;;;;;;6.78;2.70;;;;;;;21.12;51.73;96176.16;10525867;28;20039;-33
2023/07/21 09:19:43;;;;;;;6.63;2.75;;;;;;;21.23;51.32;96174.25;10524309;28;20413;-33
2023/07/21 09:24:50;;;;;;;5.85;2.15;;;;;;;21.22;51.70;96176.84;10531849;28;20054;-34
2023/07/21 09:30:00;;;;;;;7.50;2.25;;;;;;;21.12;51.91;96168.53;10527036;28;20054;-33
2023/07/21 09:35:03;;;;;;;4.05;1.63;;;;;;;21.08;52.00;96164.38;10536847;28;20033;-32
2023/07/21 09:40:09;;;;;;;4.00;1.73;;;;;;;21.06;52.07;96172.91;10551417;28;20079;-33
2023/07/21 09:45:11;;;;;;;2.58;1.63;;;;;;;21.05;52.23;96169.50;10533192;28;20032;-33
2023/07/21 09:50:11;;;;;;;4.90;1.70;;;;;;;21.06;52.38;96178.00;10536406;28;20529;-33
2023/07/21 09:55:16;;;;;;;7.30;2.10;;;;;;;21.17;52.44;96176.06;10538334;28;20338;-33
2023/07/21 10:00:18;;;;;;;6.20;1.63;;;;;;;21.29;52.04;96183.50;10532259;28;20497;-34
2023/07/21 10:05:18;;;;;;;3.63;2.22;;;;;;;21.21;52.27;96190.44;10531853;28;20044;-31
2023/07/21 10:10:19;;;;;;;3.47;1.90;;;;;;;21.18;52.14;96210.84;10503355;28;20444;-33
2023/07/21 10:15:31;;;;;;;2.25;1.58;;;;;;;21.11;52.19;96215.22;10489127;28;20101;-35
2023/07/21 10:20:42;;;;;;;2.10;1.60;;;;;;;21.11;52.46;96215.22;10491074;28;20044;-33
2023/07/21 10:25:51;;;;;;;7.93;2.60;;;;;;;21.07;52.87;96218.66;10485845;28;20038;-33
2023/07/21 10:30:52;;;;;;;7.47;2.70;;;;;;;21.15;53.25;96229.56;10482710;28;20042;-32
2023/07/21 10:35:52;;;;;;;4.25;1.67;;;;;;;21.32;52.85;96229.25;10520483;28;20028;-33
2023/07/21 10:40:53;;;;;;;7.47;2.30;;;;;;;21.33;52.94;96241.97;10497340;28;20036;-33
2023/07/21 10:45:54;;;;;;;3.97;2.27;;;;;;;21.24;52.75;96224.28;10486836;28;20036;-32
2023/07/21 10:50:54;;;;;;;10.40;2.33;;;;;;;21.16;52.72;96231.25;10483342;28;20155;-33
2023/07/21 10:56:06;;;;;;;3.17;1.60;;;;;;;21.14;53.08;96232.16;10481589;28;20035;-33
2023/07/21 11:01:06;;;;;;;4.05;2.15;;;;;;;21.13;52.81;96251.66;10480397;28;20039;-34
2023/07/21 11:06:07;;;;;;;4.33;1.77;;;;;;;21.17;53.41;96255.84;10481207;28;20028;-33
2023/07/21 11:11:10;;;;;;;8.23;1.87;;;;;;;21.30;53.41;96252.19;10481237;28;20040;-33
2023/07/21 11:16:11;;;;;;;6.80;1.83;;;;;;;21.42;52.55;96251.13;10468993;28;20402;-34
2023/07/21 11:21:11;;;;;;;2.03;1.43;;;;;;;21.37;52.54;96248.66;10465233;28;20040;-34
2023/07/21 11:26:11;;;;;;;4.43;2.10;;;;;;;21.30;52.68;96231.00;10466698;28;20028;-34
2023/07/21 11:31:13;;;;;;;2.93;1.50;;;;;;;21.24;52.70;96231.09;10463324;28;20047;-34
2023/07/21 11:36:18;;;;;;;5.13;1.52;;;;;;;21.20;52.84;96230.31;10464725;28;20043;-32
2023/07/21 11:41:36;;;;;;;4.10;1.60;;;;;;;21.17;52.87;96243.13;10466917;28;21823;-32
2023/07/21 11:46:37;;;;;;;2.85;1.85;;;;;;;21.29;52.53;96242.88;10469813;28;20141;-31
2023/07/21 11:51:45;;;;;;;2.65;1.92;;;;;;;21.42;52.22;96249.44;10471042;28;20517;-32
2023/07/21 11:56:46;;;;;;;1.63;1.17;;;;;;;21.39;52.47;96252.03;10472188;28;20027;-31
2023/07/21 12:01:47;;;;;;;2.35;1.58;;;;;;;21.31;52.44;96266.59;10474857;28;20032;-31
2023/07/21 12:06:48;;;;;;;2.25;1.63;;;;;;;21.25;52.60;96269.28;10473386;28;20076;-32
2023/07/21 12:11:52;;;;;;;2.25;1.27;;;;;;;21.23;52.77;96265.91;10465173;28;20048;-35
2023/07/21 12:16:55;;;;;;;4.10;1.85;;;;;;;21.21;52.86;96267.63;10464105;28;20035;-33
2023/07/21 12:21:56;;;;;;;4.15;1.50;;;;;;;21.28;52.92;96260.72;10462831;28;20067;-34
2023/07/21 12:26:57;;;;;;;5.63;2.17;;;;;;;21.44;52.91;96267.22;10468917;28;20043;-32
2023/07/21 12:31:57;;;;;;;5.80;2.70;;;;;;;21.44;52.69;96265.53;10461256;28;20518;-33
2023/07/21 12:36:58;;;;;;;3.27;1.60;;;;;;;21.30;52.82;96257.28;10498082;28;20290;-33
2023/07/21 12:41:58;;;;;;;4.70;2.00;;;;;;;21.29;52.94;96259.88;10524406;28;20032;-32
2023/07/21 12:46:59;;;;;;;5.13;1.90;;;;;;;21.23;52.93;96249.81;10530890;28;20024;-32
2023/07/21 12:51:59;;;;;;;2.47;1.83;;;;;;;21.21;53.41;96247.28;10533188;28;20039;-32
2023/07/21 12:56:59;;;;;;;3.40;1.87;;;;;;;21.19;52.93;96264.28;10531753;28;20297;-34
2023/07/21 13:02:00;;;;;;;4.32;1.60;;;;;;;21.38;53.01;96260.53;10530575;28;20051;-33
2023/07/21 13:07:07;;;;;;;6.20;2.20;;;;;;;21.48;53.01;96262.03;10530194;28;20452;-33
2023/07/21 13:12:08;;;;;;;5.78;1.88;;;;;;;21.42;52.94;96277.44;10519292;28;20047;-33
2023/07/21 13:17:08;;;;;;;4.18;1.48;;;;;;;21.33;52.98;96272.53;10524900;28;20029;-33
2023/07/21 13:22:09;;;;;;;2.03;1.70;;;;;;;21.27;53.08;96275.19;10520387;28;20064;-33
2023/07/21 13:27:09;;;;;;;3.87;1.60;;;;;;;21.26;53.02;96291.31;10525990;28;20277;-33
2023/07/21 13:32:09;;;;;;;5.13;1.93;;;;;;;21.23;53.22;96293.09;10525472;28;20501;-31
2023/07/21 13:37:10;;;;;;;5.47;2.53;;;;;;;21.26;53.61;96300.66;10521252;28;20161;-33
2023/07/21 13:42:12;;;;;;;3.50;1.67;;;;;;;21.44;53.40;96316.47;10528361;28;20128;-32
2023/07/21 13:47:12;;;;;;;2.40;1.70;;;;;;;21.49;53.16;96322.28;10530856;28;20096;-33
2023/07/21 13:52:13;;;;;;;2.97;2.00;;;;;;;21.41;53.00;96326.69;10528179;28;20545;-34
2023/07/21 13:57:13;;;;;;;3.65;1.65;;;;;;;21.31;53.14;96330.25;10530786;28;20429;-33
2023/07/21 14:02:16;;;;;;;1.80;1.37;;;;;;;21.27;53.28;96359.19;10531002;28;20036;-33
2023/07/21 14:07:16;;;;;;;2.28;1.65;;;;;;;21.24;53.53;96369.41;10528662;28;20126;-33
2023/07/21 14:12:17;;;;;;;2.95;1.70;;;;;;;21.26;53.39;96388.09;10525496;28;20409;-33
2023/07/21 14:17:18;;;;;;;5.97;1.47;;;;;;;21.33;53.94;96379.47;10529219;28;20032;-33
2023/07/21 14:22:18;;;;;;;7.75;2.60;;;;;;;21.52;53.67;96375.75;10526565;28;20294;-32
2023/07/21 14:27:18;;;;;;;3.23;2.00;;;;;;;21.49;53.27;96375.78;10538490;28;20032;-33
2023/07/21 14:32:19;;;;;;;3.83;2.00;;;;;;;21.44;53.31;96372.50;10533376;28;20295;-32
2023/07/21 14:37:19;;;;;;;2.80;1.57;;;;;;;21.40;53.38;96380.22;10534235;28;20485;-34
2023/07/21 14:42:19;;;;;;;11.67;2.53;;;;;;;21.39;53.44;96383.63;10536447;28;20028;-32
2023/07/21 14:47:20;;;;;;;3.40;1.77;;;;;;;21.38;53.59;96380.22;10537599;28;20032;-32
2023/07/21 14:52:20;;;;;;;2.93;1.77;;;;;;;21.37;53.51;96380.25;10534845;28;20039;-33
2023/07/21 14:57:22;;;;;;;5.97;2.33;;;;;;;21.47;53.86;96382.63;10536681;28;20032;-34
2023/07/21 15:02:22;;;;;;;3.90;2.03;;;;;;;21.60;53.98;96373.06;10526688;28;20036;-33
2023/07/21 15:07:23;;;;;;;7.65;2.08;;;;;;;21.50;54.00;96357.13;10510298;28;20413;-33
2023/07/21 15:12:25;;;;;;;3.30;1.65;;;;;;;21.45;54.15;96363.97;10506068;28;20449;-32
2023/07/21 15:17:25;;;;;;;3.70;1.65;;;;;;;21.40;53.71;96365.75;10538421;28;20086;-33
2023/07/21 15:22:25;;;;;;;4.57;1.60;;;;;;;21.40;53.75;96375.94;10531969;28;20072;-34
2023/07/21 15:27:26;;;;;;;4.47;1.83;;;;;;;21.39;53.88;96378.53;10535582;28;20301;-35
2023/07/21 15:32:26;;;;;;;5.43;2.43;;;;;;;21.56;54.17;96381.63;10530737;28;20401;-32
2023/07/21 15:37:26;;;;;;;3.10;1.83;;;;;;;21.62;54.32;96377.25;10531142;28;20508;-32
2023/07/21 15:42:27;;;;;;;4.93;1.60;;;;;;;21.52;53.91;96375.75;10531302;28;20482;-34
2023/07/21 15:47:27;;;;;;;1.80;1.23;;;;;;;21.44;53.73;96377.59;10523848;28;20493;-33
2023/07/21 15:52:27;;;;;;;2.90;1.53;;;;;;;21.42;53.93;96388.66;10535350;28;20308;-33
2023/07/21 15:57:28;;;;;;;4.73;1.70;;;;;;;21.37;54.06;96386.19;10532118;28;20054;-33
2023/07/21 16:02:28;;;;;;;3.33;1.70;;;;;;;21.39;53.84;96388.72;10534513;28;20120;-33
2023/07/21 16:07:28;;;;;;;4.57;2.30;;;;;;;21.37;54.12;96386.19;10534082;28;20038;-33
2023/07/21 16:12:29;;;;;;;3.33;1.43;;;;;;;21.55;54.73;96385.06;10526502;28;20070;-32
2023/07/21 16:17:29;;;;;;;4.17;1.97;;;;;;;21.63;54.69;96389.13;10532850;28;20567;-32
2023/07/21 16:22:29;;;;;;;1.20;1.10;;;;;;;21.51;53.85;96389.34;10534263;28;20028;-33
2023/07/21 16:27:31;;;;;;;1.80;1.60;;;;;;;21.44;53.88;96397.09;10533859;28;20046;-33
2023/07/21 16:32:32;;;;;;;2.75;1.30;;;;;;;21.38;53.93;96387.88;10533737;28;20097;-32
2023/07/21 16:37:33;;;;;;;2.30;1.20;;;;;;;21.38;54.25;96397.22;10533760;28;20550;-33
2023/07/21 16:42:35;;;;;;;1.75;1.40;;;;;;;21.37;54.16;96401.47;10533680;28;20035;-32
2023/07/21 16:47:36;;;;;;;3.90;1.90;;;;;;;21.42;55.33;96397.16;10531202;28;20036;-34
2023/07/21 16:52:36;;;;;;;1.87;1.30;;;;;;;21.60;54.96;96399.38;10522747;28;20040;-34
2023/07/21 16:57:37;;;;;;;2.20;1.20;;;;;;;21.64;54.44;96406.09;10540843;28;20306;-34
2023/07/21 17:02:40;;;;;;;1.97;1.17;;;;;;;21.51;54.16;96407.19;10533369;28;20032;-33
2023/07/21 17:07:40;;;;;;;2.88;1.27;;;;;;;21.46;54.35;96405.59;10540679;28;20293;-33
2023/07/21 17:12:41;;;;;;;2.40;1.50;;;;;;;21.43;54.41;96415.81;10546044;28;20032;-33
2023/07/21 17:17:41;;;;;;;1.63;1.42;;;;;;;21.41;54.25;96410.72;10529898;28;20474;-32
2023/07/21 17:22:45;;;;;;;2.28;1.35;;;;;;;21.40;54.45;96421.78;10532272;28;20039;-32
2023/07/21 17:27:46;;;;;;;1.70;1.40;;;;;;;21.43;55.06;96421.75;10532868;28;20035;-33
2023/07/21 17:32:46;;;;;;;3.20;1.50;;;;;;;21.63;55.39;96429.06;10521209;28;20047;-33
2023/07/21 17:37:47;;;;;;;6.33;2.17;;;;;;;21.63;54.39;96445.19;10527636;28;20036;-33
2023/07/21 17:42:47;;;;;;;2.15;1.15;;;;;;;21.52;54.11;96444.53;10522580;28;20032;-33
2023/07/21 17:47:48;;;;;;;2.97;1.20;;;;;;;21.43;54.31;96444.69;10531643;28;20047;-33
2023/07/21 17:52:48;;;;;;;6.90;1.40;;;;;;;21.42;54.32;96453.19;10519947;28;20044;-33
2023/07/21 17:57:48;;;;;;;1.20;1.10;;;;;;;21.42;54.11;96454.88;10528549;28;20036;-33
2023/07/21 18:02:49;;;;;;;1.52;1.10;;;;;;;21.41;54.40;96458.28;10526656;28;20036;-32
2023/07/21 18:07:49;;;;;;;1.75;1.23;;;;;;;21.46;55.09;96467.53;10552285;28;20028;-33
2023/07/21 18:12:50;;;;;;;5.13;2.20;;;;;;;21.64;55.28;96472.34;10531433;28;20040;-36
2023/07/21 18:17:50;;;;;;;3.20;1.40;;;;;;;21.66;54.36;96463.00;10539807;28;20036;-36
2023/07/21 18:22:51;;;;;;;2.13;1.40;;;;;;;21.53;54.30;96473.38;10546184;28;20032;-36
2023/07/21 18:27:51;;;;;;;1.77;1.27;;;;;;;21.43;54.07;96469.28;10527621;28;20107;-36
2023/07/21 18:32:52;;;;;;;4.65;1.42;;;;;;;21.46;54.43;96474.38;10536349;28;20036;-33
2023/07/21 18:37:52;;;;;;;4.97;1.40;;;;;;;21.43;54.54;96490.53;10534186;28;20040;-33
2023/07/21 18:42:53;;;;;;;1.95;1.55;;;;;;;21.51;55.22;96491.25;10533735;28;20031;-33
2023/07/21 18:47:54;;;;;;;2.17;1.02;;;;;;;21.64;55.28;96491.91;10525999;28;20065;-33
2023/07/21 18:52:56;;;;;;;2.75;1.20;;;;;;;21.62;55.11;96498.69;10526286;28;20041;-34
2023/07/21 18:58:01;;;;;;;4.53;1.88;;;;;;;21.54;54.84;96510.72;10526560;28;20415;-32
2023/07/21 19:03:03;;;;;;;4.15;2.22;;;;;;;21.47;54.40;96511.69;10533116;28;20027;-33
2023/07/21 19:08:06;;;;;;;4.40;2.03;;;;;;;21.41;54.47;96501.59;10531636;28;20031;-33
2023/07/21 19:13:06;;;;;;;5.28;2.25;;;;;;;21.42;54.45;96513.47;10521851;28;20418;-32
2023/07/21 19:18:07;;;;;;;8.33;2.63;;;;;;;21.42;54.62;96526.19;10523621;28;20036;-34
2023/07/21 19:23:08;;;;;;;18.20;9.07;;;;;;;21.51;55.42;96537.09;10523661;28;20036;-33
2023/07/21 19:28:08;;;;;;;22.25;11.60;;;;;;;21.67;55.37;96541.13;10519915;28;20302;-33
2023/07/21 19:33:08;;;;;;;13.37;6.90;;;;;;;21.67;54.66;96551.34;10526840;28;20089;-32
2023/07/21 19:38:09;;;;;;;11.93;6.33;;;;;;;21.55;54.63;96554.00;10532023;28;20023;-33
2023/07/21 19:43:09;;;;;;;7.90;4.47;;;;;;;21.48;54.52;96564.31;10534020;28;20038;-33
2023/07/21 19:48:11;;;;;;;7.13;4.15;;;;;;;21.44;54.77;96562.66;10533091;28;20028;-32
2023/07/21 19:53:12;;;;;;;14.10;5.38;;;;;;;21.41;54.79;96566.09;10543230;28;20082;-32
2023/07/21 19:58:12;;;;;;;9.97;4.83;;;;;;;21.41;54.84;96571.19;10523220;28;20070;-33
2023/07/21 20:03:12;;;;;;;15.00;6.10;;;;;;;21.43;55.35;96568.63;10535757;28;20353;-33
2023/07/21 20:08:14;;;;;;;13.43;7.57;;;;;;;21.65;54.60;96583.63;10535840;28;20047;-32
2023/07/21 20:13:15;;;;;;;11.73;6.80;;;;;;;21.65;54.38;96586.16;10531020;28;20340;-33
2023/07/21 20:18:15;;;;;;;10.45;5.05;;;;;;;21.56;54.50;96590.53;10540256;28;20118;-32
2023/07/21 20:23:16;;;;;;;2.55;1.65;;;;;;;20.63;55.16;96597.59;10547032;28;20414;-33
2023/07/21 20:28:17;;;;;;;2.80;1.83;;;;;;;20.23;56.03;96597.13;10532627;28;20035;-33
2023/07/21 20:33:17;;;;;;;2.57;1.57;;;;;;;20.10;56.00;96598.13;10532708;28;20135;-33
2023/07/21 20:38:18;;;;;;;5.37;1.80;;;;;;;20.02;56.08;96595.59;10529216;28;20036;-33
2023/07/21 20:43:18;;;;;;;2.55;1.83;;;;;;;20.02;56.44;96604.91;10533068;28;20119;-33
2023/07/21 20:48:18;;;;;;;2.97;1.47;;;;;;;19.97;56.35;96609.19;10525815;28;20035;-36
2023/07/21 20:53:19;;;;;;;1.97;1.73;;;;;;;19.98;56.26;96615.94;10542444;28;20051;-33
2023/07/21 20:58:20;;;;;;;2.37;1.50;;;;;;;19.92;56.22;96621.91;10528404;28;20043;-32
2023/07/21 21:03:21;;;;;;;1.95;1.45;;;;;;;19.88;56.57;96622.81;10522941;28;20031;-33
2023/07/21 21:08:21;;;;;;;2.00;1.50;;;;;;;19.80;56.27;96639.81;10532526;28;20395;-33
2023/07/21 21:13:22;;;;;;;3.67;1.53;;;;;;;19.77;56.30;96644.06;10528816;28;20032;-32
2023/07/21 21:18:22;;;;;;;3.28;1.83;;;;;;;19.74;56.19;96639.84;10532199;28;20146;-33
2023/07/21 21:23:23;;;;;;;3.77;1.30;;;;;;;19.74;56.20;96646.59;10528586;28;20032;-33
2023/07/21 21:28:23;;;;;;;2.50;1.73;;;;;;;19.76;56.28;96655.06;10531953;28;20044;-32
2023/07/21 21:33:24;;;;;;;2.20;1.63;;;;;;;19.72;56.18;96661.00;10542064;28;20785;-32
2023/07/21 21:38:25;;;;;;;2.45;1.60;;;;;;;19.63;56.52;96661.06;10537230;28;20034;-32
2023/07/21 21:43:25;;;;;;;2.65;1.98;;;;;;;19.56;56.43;96661.94;10545334;28;20027;-32
2023/07/21 21:48:26;;;;;;;3.40;1.90;;;;;;;19.57;56.60;96666.16;10544342;28;20473;-34
2023/07/21 21:53:26;;;;;;;4.03;1.50;;;;;;;19.56;56.61;96667.03;10521707;28;20081;-32
2023/07/21 21:58:31;;;;;;;2.50;1.63;;;;;;;19.50;56.26;96667.06;10539163;28;20036;-33
2023/07/21 22:03:37;;;;;;;2.80;1.90;;;;;;;19.41;56.44;96670.50;10539775;28;20115;-32
2023/07/21 22:08:38;;;;;;;2.80;1.40;;;;;;;19.49;56.20;96673.00;10540359;28;20032;-33
2023/07/21 22:13:38;;;;;;;3.78;1.77;;;;;;;19.43;56.44;96667.94;10537981;28;20028;-33
2023/07/21 22:18:38;;;;;;;5.83;2.00;;;;;;;19.36;56.75;96678.97;10528640;28;20483;-33
2023/07/21 22:23:39;;;;;;;2.90;2.00;;;;;;;19.37;56.26;96683.19;10542158;28;20461;-33
2023/07/21 22:28:39;;;;;;;2.23;1.70;;;;;;;19.34;56.03;96668.00;10536781;28;20032;-34
2023/07/21 22:33:40;;;;;;;2.67;1.92;;;;;;;19.33;56.36;96676.47;10541837;28;20020;-33
2023/07/21 22:38:41;;;;;;;3.80;1.58;;;;;;;19.26;56.12;96682.41;10539387;28;20028;-32
2023/07/21 22:43:41;;;;;;;3.83;2.25;;;;;;;19.29;56.47;96680.72;10533164;28;20043;-32
2023/07/21 22:48:41;;;;;;;2.17;1.67;;;;;;;19.21;56.21;96691.72;10541538;28;20088;-33
2023/07/21 22:53:42;;;;;;;6.57;2.07;;;;;;;19.19;56.36;96701.03;10538058;28;20290;-32
2023/07/21 22:58:42;;;;;;;1.90;1.30;;;;;;;19.11;56.21;96692.56;10540206;28;20055;-33
2023/07/21 23:03:43;;;;;;;2.53;2.20;;;;;;;19.07;55.95;96690.88;10537764;28;20474;-32
2023/07/21 23:08:43;;;;;;;3.00;1.53;;;;;;;19.14;55.79;96700.16;10535185;28;20482;-33
2023/07/21 23:13:43;;;;;;;2.73;1.67;;;;;;;19.07;55.79;96696.81;10534790;28;20301;-32
2023/07/21 23:18:44;;;;;;;2.67;1.87;;;;;;;19.04;55.98;96688.34;10534907;28;20044;-33
2023/07/21 23:23:44;;;;;;;2.43;1.70;;;;;;;19.03;56.20;96694.28;10527592;28;20281;-33